Hundvaag 1 weather for Jun 2007
Month no. 240
Obs.
Da.
Temp. Dew Point Precip. Wind
Speed
Wind gusts Cloud cover Press. Humidity Wind dir. Sunny OPT
01.06.2007 13,1   0,0 6,4   0 1021,2 64,0 157,5   65,0 %
02.06.2007 12,1   0,0 8,0   0 1030,0 83,0 135,0   60,0 %
03.06.2007 15,2   0,0 9,7   8 1029,3 52,0 135,0 1 85,0 %
04.06.2007 12,5   0,0 8,0   10 1029,0 69,0 157,5 1 87,5 %
05.06.2007 13,8   0,0 4,8   2 1026,6 79,0 45,0 1 70,0 %
06.06.2007 14,4   0,4 8,0   6 1023,9 83,0 157,5 1 77,5 %
07.06.2007 17,3   1,0 4,8   8 1024,9 78,0 157,5 1 87,5 %
08.06.2007 17,4   0,0 9,7   10 1023,2 72,0 180,0 1 90,0 %
09.06.2007 19,9   0,0 12,9   7 1021,2 63,0 67,5 1 82,5 %
10.06.2007 17,4   0,0 9,7   10 1019,5 77,0 180,0 1 90,0 %
11.06.2007 16,9   0,0 3,2   10 1016,5 77,0 315,0 1 95,0 %
12.06.2007 12,4   0,0 12,9   1 1008,7 75,0 90,0 1 60,0 %
13.06.2007 9,8   0,0 12,9   8 1005,3 66,0 135,0 1 75,0 %
14.06.2007 7,3   0,1 4,8   3 1007,0 74,0 45,0 1 65,0 %
15.06.2007 10,3   0,2 8,0   10 1012,1 72,0 180,0 1 85,0 %
16.06.2007 11,1   0,0 9,7   8 1008,7 65,0 157,5 1 80,0 %
17.06.2007 11,9   5,1 9,7   0 1002,9 80,0 135,0   57,5 %
18.06.2007 13,2   2,5 4,8   5 1008,4 82,0 157,5 1 77,5 %
19.06.2007 13,1   0,0 9,7   10 1013,4 85,0 112,5 1 87,5 %
20.06.2007 12,1   0,0 1,6   9 1015,5 85,0 22,5 1 87,5 %
21.06.2007 15,9   1,4 1,6   1 1010,4 79,0 22,5 1 72,5 %
22.06.2007 14,2   0,1 8,0   2 1010,0 82,0 270,0 1 67,5 %
23.06.2007 14,5   0,0 1,6   3 1003,3 82,0 225,0 1 75,0 %
24.06.2007 14,2   0,0 3,2   5 1007,7 76,0 337,5 1 80,0 %
25.06.2007 12,6   0,0 1,6   9 1008,4 84,0 67,5 1 90,0 %
26.06.2007 13,6   0,0 9,7   8 994,1 85,0 0,0 1 82,5 %
27.06.2007 10,2   17,0 9,7   0 991,4 88,0 270,0   47,5 %
28.06.2007 9,8   5,6 12,9   0 999,2 87,0 45,0 1 52,5 %
29.06.2007 10,9   0,5 9,7   8 1002,9 78,0 180,0 1 80,0 %
30.06.2007 11,3   14,3 4,8   1 1002,9 99,0 225,0 1 55,0 %
                       
Avrg/Sum 13,3   48,2 7,4   5,4 1012,6 77,4 145,5 26 75,6 %